Keosauqua, IA

8:58 PM CDT on September 01, 2015 (GMT -0500)
KIADONNE3 | | Change Station
CLOSE
Current Station
Personal Weather Station
Location: Donnellson, IA
Elevation: 700 ft
Nearby Weather Stations

Elev 700 ft 40.63 °N, 91.60 °W | Updated 8 seconds ago

Clear
Clear
76.3 °F
Feels Like 76 °F
N
0.0
Wind Variable Wind from ENE
Gusts 0.0 mph

Today
High -- | Low -- °F
--% Chance of Precip.
Yesterday
High -- | Low -- °F
Precip. -- in
6:34 AM 7:40 PM
Waning Gibbous, 84% visible
Pressure 30.00 in
Visibility 10.0 miles
Clouds Clear
Heat Index 76 °F
Dew Point 76 °F
Humidity 98%
Rainfall 0.00 in
Snow Depth Not available.
UV 0 out of 12
Pollen 10.80 out of 12
Air Quality Not available.
Flu Activity Not available.
METAR KFFL 020135Z AUTO 18004KT 10SM CLR 26/20 A3000 RMK AO2
Pressure 30.00 in
Visibility 10.0 miles
Clouds Clear
Heat Index 76 °F
Dew Point 76 °F
Humidity 98%
Rainfall 0.00 in
Snow Depth Not available.
UV 0 out of 12
Pollen 10.80 out of 12
Air Quality Not available.
Flu Activity Not available.
METAR KFFL 020135Z AUTO 18004KT 10SM CLR 26/20 A3000 RMK AO2

10-Day Weather Forecast

×

Almanac

Astronomy

Sep. 01, 2015 Rise Set
Actual Time
Civil Twilight
Nautical Twilight
Astronomical Twilight
Moon
Length of Visible Light
Length of Day
Tomorrow will be .
, % of the Moon is Illuminated

Today's Extremes

State Highs State Lows

Community

WunderPhotos

Upload Photos

1,851,673 photos uploaded!

WunderBlogs® & News

Nearby

Air Quality

  Air Quality AQ Index Pollutant
Not available.

Snow Depth

Station Depth Elevation

Earthquake Activity

City Distance Mag. Time & Date
Minimum magnitude displayed is 2.5.

Coastal Water Temperatures

Place Temperature

Stations

Nearby Weather Stations

Station Location Temp. Windchill Dew Point Humidity Wind Precip. Elev Updated Type